createdAt,value
2022-12-01T00:00:09.505Z,69.85
2022-12-01T00:02:36.048Z,73.47
2022-12-01T00:05:02.796Z,70.28
2022-12-01T00:07:29.341Z,66.00
2022-12-01T00:10:14.538Z,65.28
2022-12-01T00:12:43.505Z,67.60
2022-12-01T00:15:12.802Z,66.63
2022-12-01T00:17:39.202Z,68.30
2022-12-01T00:20:07.098Z,61.75
2022-12-01T00:22:33.507Z,63.30
2022-12-01T00:25:00.191Z,68.60
2022-12-01T00:27:26.824Z,70.25
2022-12-01T00:29:53.193Z,67.55
2022-12-01T00:32:19.724Z,64.90
2022-12-01T00:34:46.167Z,60.28
2022-12-01T00:37:12.538Z,60.97
2022-12-01T00:39:38.939Z,64.97
2022-12-01T00:42:08.688Z,56.35
2022-12-01T00:44:39.398Z,54.80
2022-12-01T00:47:05.868Z,52.38
2022-12-01T00:49:32.498Z,60.75
2022-12-01T00:51:59.225Z,57.47
2022-12-01T00:54:26.376Z,60.38
2022-12-01T00:56:52.802Z,61.92
2022-12-01T00:59:19.194Z,69.88
2022-12-01T01:01:46.650Z,72.30
2022-12-01T01:04:13.167Z,63.55
2022-12-01T01:06:39.638Z,77.05
2022-12-01T01:09:06.058Z,65.97
2022-12-01T01:11:32.464Z,69.18
2022-12-01T01:13:59.513Z,73.15
2022-12-01T01:16:26.714Z,65.80
2022-12-01T01:18:53.459Z,70.15
2022-12-01T01:21:21.562Z,70.35
2022-12-01T01:23:48.982Z,70.68
2022-12-01T01:26:21.309Z,67.00
2022-12-01T01:28:48.924Z,73.57
2022-12-01T01:31:20.437Z,64.72
2022-12-01T01:33:47.785Z,74.15
2022-12-01T01:36:15.796Z,66.57
2022-12-01T01:38:42.394Z,66.55
2022-12-01T01:41:09.696Z,68.38
2022-12-01T01:43:56.873Z,67.55
2022-12-01T01:46:28.832Z,58.88
2022-12-01T01:49:00.270Z,63.17
2022-12-01T01:51:33.300Z,61.35
2022-12-01T01:54:04.533Z,59.97
2022-12-01T01:56:31.379Z,59.97
2022-12-01T01:58:59.188Z,63.20
2022-12-01T02:01:25.622Z,57.15
2022-12-01T02:03:54.614Z,58.00
2022-12-01T02:06:24.028Z,49.92
2022-12-01T02:08:50.743Z,55.17
2022-12-01T02:11:48.348Z,51.97
2022-12-01T02:14:25.038Z,55.15
2022-12-01T02:17:21.618Z,52.85
2022-12-01T02:20:18.739Z,49.90
2022-12-01T02:23:03.613Z,50.35
2022-12-01T02:25:50.439Z,50.72
2022-12-01T02:28:38.114Z,49.47
2022-12-01T02:31:23.583Z,51.05
2022-12-01T02:33:58.645Z,51.38
2022-12-01T02:36:33.592Z,49.47
2022-12-01T02:39:06.808Z,53.17
2022-12-01T02:41:39.231Z,51.45
2022-12-01T02:44:31.809Z,51.08
2022-12-01T02:47:18.513Z,53.03
2022-12-01T02:49:50.544Z,53.72
2022-12-01T02:52:18.914Z,55.17
2022-12-01T02:54:47.442Z,56.05
2022-12-01T02:57:15.366Z,57.05
2022-12-01T02:59:47.755Z,51.50
2022-12-01T03:02:42.066Z,55.95
2022-12-01T03:08:00.609Z,57.47
2022-12-01T03:10:53.766Z,59.22
2022-12-01T03:13:38.243Z,59.75
2022-12-01T03:16:20.439Z,60.75
2022-12-01T03:18:56.315Z,57.97
2022-12-01T03:21:42.408Z,56.90
2022-12-01T03:24:16.015Z,71.93
2022-12-01T03:29:20.445Z,64.57
2022-12-01T03:31:55.160Z,64.70
2022-12-01T03:34:30.085Z,65.63
2022-12-01T03:37:10.567Z,69.53
2022-12-01T03:39:40.138Z,63.72
2022-12-01T03:42:16.673Z,67.50
2022-12-01T03:44:53.771Z,68.25
2022-12-01T03:47:26.541Z,74.03
2022-12-01T03:49:54.432Z,70.53
2022-12-01T03:52:48.439Z,70.35
2022-12-01T03:55:24.108Z,65.65
2022-12-01T03:57:56.174Z,73.63
2022-12-01T04:00:23.539Z,74.03
2022-12-01T04:02:57.857Z,76.40
2022-12-01T04:05:25.596Z,72.70
2022-12-01T04:07:52.835Z,77.18
2022-12-01T04:10:19.307Z,78.43
2022-12-01T04:12:45.787Z,77.43
2022-12-01T04:15:14.461Z,76.50
2022-12-01T04:17:45.102Z,71.22
2022-12-01T04:20:14.062Z,74.18
2022-12-01T04:22:40.813Z,77.18
2022-12-01T04:25:07.861Z,78.93
2022-12-01T04:27:34.728Z,80.60
2022-12-01T04:30:01.183Z,74.63
2022-12-01T04:32:27.544Z,79.18
2022-12-01T04:34:53.957Z,73.22
2022-12-01T04:37:20.667Z,81.40
2022-12-01T04:39:47.506Z,83.68
2022-12-01T04:42:14.282Z,79.43
2022-12-01T04:44:40.664Z,78.80
2022-12-01T04:47:07.214Z,77.72
2022-12-01T04:49:35.197Z,85.25
2022-12-01T04:52:01.637Z,81.15
2022-12-01T04:54:28.529Z,83.85
2022-12-01T04:56:54.897Z,85.00
2022-12-01T04:59:21.439Z,81.05
2022-12-01T05:01:48.247Z,82.95
2022-12-01T05:04:15.526Z,77.80
2022-12-01T05:06:42.503Z,81.57
2022-12-01T05:09:17.083Z,85.32
2022-12-01T05:11:43.846Z,81.25
2022-12-01T05:14:10.539Z,84.15
2022-12-01T05:16:37.904Z,82.97
2022-12-01T05:19:24.628Z,87.70
2022-12-01T05:21:51.785Z,80.03
2022-12-01T05:24:19.499Z,82.25
2022-12-01T05:26:46.169Z,89.70
2022-12-01T05:29:13.376Z,81.63
2022-12-01T05:31:40.379Z,81.43
2022-12-01T05:34:07.724Z,77.10
2022-12-01T05:36:34.358Z,81.22
2022-12-01T05:39:00.742Z,82.03
2022-12-01T05:41:27.156Z,86.13
2022-12-01T05:43:54.022Z,83.05
2022-12-01T05:46:20.467Z,83.53
2022-12-01T05:48:47.318Z,83.03
2022-12-01T05:51:15.761Z,89.72
2022-12-01T05:53:43.153Z,86.13
2022-12-01T05:56:09.701Z,84.05
2022-12-01T05:58:36.602Z,89.13
2022-12-01T06:01:03.664Z,76.38
2022-12-01T06:03:30.055Z,82.47
2022-12-01T06:05:56.515Z,82.53
2022-12-01T06:08:23.055Z,85.32
2022-12-01T06:10:49.526Z,84.38
2022-12-01T06:13:15.924Z,83.32
2022-12-01T06:15:42.328Z,86.53
2022-12-01T06:18:09.366Z,90.97
2022-12-01T06:20:35.901Z,83.70
2022-12-01T06:23:02.327Z,91.75
2022-12-01T06:25:28.734Z,87.90
2022-12-01T06:27:58.930Z,86.68
2022-12-01T06:30:26.347Z,88.50
2022-12-01T06:32:52.848Z,92.65
2022-12-01T06:35:19.638Z,94.75
2022-12-01T06:37:46.262Z,91.85
2022-12-01T06:40:12.953Z,92.68
2022-12-01T06:42:39.376Z,90.25
2022-12-01T06:45:06.207Z,91.00
2022-12-01T06:47:32.619Z,90.80
2022-12-01T06:49:59.054Z,92.03
2022-12-01T06:52:27.443Z,85.95
2022-12-01T06:54:53.906Z,89.28
2022-12-01T06:57:20.705Z,84.40
2022-12-01T06:59:48.211Z,94.45
2022-12-01T07:02:16.521Z,93.95
2022-12-01T07:04:42.980Z,92.97
2022-12-01T07:07:09.758Z,90.20
2022-12-01T07:09:36.212Z,92.15
2022-12-01T07:12:02.692Z,95.20
2022-12-01T07:14:30.785Z,103.43
2022-12-01T07:16:58.790Z,100.22
2022-12-01T07:19:25.282Z,95.88
2022-12-01T07:21:51.644Z,95.90
2022-12-01T07:24:18.037Z,94.53
2022-12-01T07:26:44.501Z,102.65
2022-12-01T07:29:11.372Z,100.20
2022-12-01T07:31:38.554Z,100.72
2022-12-01T07:34:05.874Z,97.63
2022-12-01T07:36:32.570Z,103.55
2022-12-01T07:38:59.028Z,107.57
2022-12-01T07:41:25.482Z,121.30
2022-12-01T07:43:52.095Z,100.07
2022-12-01T07:46:24.339Z,119.07
2022-12-01T07:48:52.073Z,120.45
2022-12-01T07:51:19.476Z,121.50
2022-12-01T07:53:47.664Z,109.88
2022-12-01T07:56:14.057Z,113.70
2022-12-01T07:58:42.189Z,128.35
2022-12-01T08:01:17.959Z,116.53
2022-12-01T08:03:44.564Z,113.25
2022-12-01T08:06:11.964Z,126.43
2022-12-01T08:08:40.636Z,115.88
2022-12-01T08:11:10.792Z,107.47
2022-12-01T08:13:37.884Z,115.57
2022-12-01T08:16:10.486Z,113.47
2022-12-01T08:18:38.901Z,114.13
2022-12-01T08:21:06.756Z,115.15
2022-12-01T08:23:33.221Z,117.78
2022-12-01T08:26:04.680Z,117.30
2022-12-01T08:28:31.474Z,121.63
2022-12-01T08:30:58.055Z,114.93
2022-12-01T08:33:24.490Z,123.80
2022-12-01T08:35:50.927Z,131.77
2022-12-01T08:38:17.449Z,130.70
2022-12-01T08:40:44.271Z,127.50
2022-12-01T08:43:23.185Z,129.77
2022-12-01T08:46:01.468Z,132.63
2022-12-01T08:48:29.986Z,123.20
2022-12-01T08:51:02.458Z,127.35
2022-12-01T08:53:29.407Z,130.55
2022-12-01T08:55:58.575Z,114.53
2022-12-01T08:58:24.980Z,124.75
2022-12-01T09:00:51.381Z,134.65
2022-12-01T09:03:17.825Z,134.10
2022-12-01T09:05:44.233Z,124.85
2022-12-01T09:08:29.331Z,126.68
2022-12-01T09:10:55.786Z,130.75
2022-12-01T09:13:22.179Z,127.40
2022-12-01T09:16:00.030Z,128.02
2022-12-01T09:18:27.057Z,129.32
2022-12-01T09:20:54.917Z,138.55
2022-12-01T09:23:22.232Z,135.45
2022-12-01T09:25:49.904Z,132.82
2022-12-01T09:28:17.941Z,136.02
2022-12-01T09:30:45.558Z,131.32
2022-12-01T09:33:12.728Z,124.88
2022-12-01T09:35:39.461Z,132.68
2022-12-01T09:38:05.894Z,125.88
2022-12-01T09:40:39.009Z,118.93
2022-12-01T09:43:14.960Z,130.15
2022-12-01T09:45:44.257Z,117.43
2022-12-01T09:48:25.541Z,128.00
2022-12-01T09:50:52.533Z,137.93
2022-12-01T09:53:23.959Z,138.75
2022-12-01T09:55:50.761Z,124.00
2022-12-01T09:58:26.293Z,134.32
2022-12-01T10:00:54.292Z,142.45
2022-12-01T10:03:32.978Z,137.77
2022-12-01T10:06:28.519Z,143.93
2022-12-01T10:09:06.850Z,139.88
2022-12-01T10:11:40.969Z,139.60
2022-12-01T10:14:19.475Z,138.20
2022-12-01T10:17:05.527Z,147.27
2022-12-01T10:20:03.470Z,131.90
2022-12-01T10:23:04.732Z,129.80
2022-12-01T10:25:56.945Z,151.93
2022-12-01T10:28:53.923Z,136.07
2022-12-01T10:31:34.598Z,136.40
2022-12-01T10:34:27.222Z,136.48
2022-12-01T10:36:54.065Z,143.48
2022-12-01T10:39:30.494Z,142.35
2022-12-01T10:42:06.560Z,133.20
2022-12-01T10:44:34.447Z,136.45
2022-12-01T10:47:00.859Z,132.82
2022-12-01T10:49:41.478Z,130.15
2022-12-01T10:52:32.782Z,129.55
2022-12-01T10:55:00.324Z,119.53
2022-12-01T10:57:30.081Z,124.53
2022-12-01T11:00:04.490Z,105.97
2022-12-01T11:02:32.257Z,113.22
2022-12-01T11:05:22.781Z,118.43
2022-12-01T11:07:50.082Z,122.43
2022-12-01T11:10:21.397Z,126.40
2022-12-01T11:13:02.295Z,114.50
2022-12-01T11:15:37.451Z,115.85
2022-12-01T11:18:06.444Z,123.03
2022-12-01T11:20:36.299Z,132.85
2022-12-01T11:23:26.339Z,124.80
2022-12-01T11:26:07.844Z,130.32
2022-12-01T11:28:36.002Z,134.07
2022-12-01T11:31:06.241Z,128.95
2022-12-01T11:33:43.917Z,108.05
2022-12-01T11:36:18.331Z,104.38
2022-12-01T11:38:44.924Z,96.55
2022-12-01T11:41:29.643Z,108.50
2022-12-01T11:44:01.546Z,92.07
2022-12-01T11:46:32.527Z,115.72
2022-12-01T11:49:00.102Z,104.72
2022-12-01T11:51:31.893Z,108.00
2022-12-01T11:54:06.216Z,105.55
2022-12-01T11:56:32.585Z,95.65
2022-12-01T11:59:05.523Z,107.13
2022-12-01T12:01:56.988Z,108.90
2022-12-01T12:04:35.149Z,107.65
2022-12-01T12:07:23.104Z,111.32
2022-12-01T12:10:01.717Z,99.28
2022-12-01T12:12:46.571Z,94.85
2022-12-01T12:15:28.370Z,92.00
2022-12-01T12:18:26.294Z,92.57
2022-12-01T12:21:13.648Z,98.35
2022-12-01T12:23:57.327Z,97.53
2022-12-01T12:26:42.555Z,99.97
2022-12-01T12:29:43.326Z,103.65
2022-12-01T12:32:28.531Z,109.25
2022-12-01T12:35:03.271Z,123.05
2022-12-01T12:37:43.012Z,103.75
2022-12-01T12:40:35.661Z,114.40
2022-12-01T12:43:18.710Z,112.60
2022-12-01T12:46:08.574Z,124.87
2022-12-01T12:48:38.739Z,111.20
2022-12-01T12:51:22.662Z,121.20
2022-12-01T12:54:18.930Z,116.75
2022-12-01T12:56:48.467Z,124.50
2022-12-01T12:59:24.882Z,107.63
2022-12-01T13:02:15.664Z,111.00
2022-12-01T13:05:06.359Z,112.40
2022-12-01T13:07:56.258Z,112.97
2022-12-01T13:10:34.318Z,112.03
2022-12-01T13:13:13.436Z,105.63
2022-12-01T13:15:42.287Z,108.32
2022-12-01T13:18:25.203Z,110.72
2022-12-01T13:20:54.146Z,126.07
2022-12-01T13:23:21.973Z,117.43
2022-12-01T13:25:56.263Z,111.95
2022-12-01T13:28:31.189Z,119.43
2022-12-01T13:31:00.651Z,120.55
2022-12-01T13:33:27.739Z,116.85
2022-12-01T13:36:22.554Z,105.40
2022-12-01T13:38:57.183Z,109.53
2022-12-01T13:41:31.858Z,115.43
2022-12-01T13:44:26.046Z,114.57
2022-12-01T13:49:42.546Z,110.75
2022-12-01T13:52:20.983Z,100.93
2022-12-01T13:55:09.424Z,103.43
2022-12-01T13:58:11.163Z,110.10
2022-12-01T14:00:37.748Z,112.57
2022-12-01T14:03:13.253Z,108.60
2022-12-01T14:05:39.673Z,105.65
2022-12-01T14:08:23.239Z,109.85
2022-12-01T14:11:26.479Z,110.43
2022-12-01T14:14:22.734Z,120.90
2022-12-01T14:16:58.371Z,101.57
2022-12-01T14:19:34.339Z,111.35
2022-12-01T14:22:02.358Z,115.50
2022-12-01T14:24:36.608Z,103.47
2022-12-01T14:27:07.892Z,108.63
2022-12-01T14:29:40.070Z,107.10
2022-12-01T14:32:09.176Z,98.32
2022-12-01T14:34:37.367Z,102.47
2022-12-01T14:37:09.760Z,102.07
2022-12-01T14:39:40.759Z,112.78
2022-12-01T14:42:35.135Z,105.35
2022-12-01T14:45:03.852Z,103.13
2022-12-01T14:47:41.476Z,108.32
2022-12-01T14:50:36.046Z,102.70
2022-12-01T14:53:24.736Z,106.05
2022-12-01T14:56:10.827Z,92.95
2022-12-01T14:58:37.258Z,102.55
2022-12-01T15:01:13.908Z,99.47
2022-12-01T15:04:01.575Z,96.38
2022-12-01T15:06:31.344Z,109.55
2022-12-01T15:09:34.974Z,112.07
2022-12-01T15:12:07.179Z,95.25
2022-12-01T15:14:39.138Z,93.75
2022-12-01T15:17:08.673Z,104.05
2022-12-01T15:19:37.890Z,100.82
2022-12-01T15:22:12.460Z,87.40
2022-12-01T15:24:39.478Z,91.32
2022-12-01T15:27:25.341Z,96.25
2022-12-01T15:29:52.364Z,83.72
2022-12-01T15:32:21.749Z,82.43
2022-12-01T15:34:51.347Z,83.13
2022-12-01T15:37:21.695Z,78.10
2022-12-01T15:43:18.473Z,68.93
2022-12-01T15:45:48.914Z,69.47
2022-12-01T15:48:18.257Z,75.63
2022-12-01T15:50:58.428Z,73.43
2022-12-01T15:53:29.202Z,81.35
2022-12-01T15:55:59.246Z,79.45
2022-12-01T15:58:30.277Z,69.82
2022-12-01T16:00:59.682Z,80.30
2022-12-01T16:03:27.028Z,76.47
2022-12-01T16:05:53.928Z,74.32
2022-12-01T16:08:24.177Z,75.97
2022-12-01T16:11:10.753Z,77.80
2022-12-01T16:14:00.717Z,81.47
2022-12-01T16:16:36.082Z,72.30
2022-12-01T16:19:05.890Z,76.18
2022-12-01T16:21:42.029Z,68.78
2022-12-01T16:24:42.870Z,67.00
2022-12-01T16:27:37.695Z,74.80
2022-12-01T16:30:08.364Z,81.20
2022-12-01T16:32:40.779Z,82.22
2022-12-01T16:35:30.412Z,76.47
2022-12-01T16:37:58.220Z,82.00
2022-12-01T16:40:24.853Z,78.68
2022-12-01T16:42:51.343Z,86.97
2022-12-01T16:45:19.205Z,85.47
2022-12-01T16:47:47.963Z,89.45
2022-12-01T16:50:16.905Z,85.18
2022-12-01T16:59:05.784Z,97.10
2022-12-01T17:01:32.404Z,82.68
2022-12-01T17:04:01.387Z,87.38
2022-12-01T17:06:31.160Z,84.43
2022-12-01T17:08:57.695Z,75.70
2022-12-01T17:11:24.324Z,79.10
2022-12-01T17:13:50.907Z,74.68
2022-12-01T17:16:18.880Z,70.65
2022-12-01T17:18:45.576Z,74.63
2022-12-01T17:21:12.180Z,72.35
2022-12-01T17:23:39.002Z,67.50
2022-12-01T17:26:18.324Z,71.03
2022-12-01T17:28:46.042Z,71.88
2022-12-01T17:31:13.317Z,81.07
2022-12-01T17:33:40.891Z,84.47
2022-12-01T17:36:11.785Z,79.13
2022-12-01T17:38:41.544Z,86.65
2022-12-01T17:41:10.727Z,84.43
2022-12-01T17:43:38.690Z,81.43
2022-12-01T17:46:06.850Z,87.00
2022-12-01T17:48:38.482Z,85.95
2022-12-01T17:51:05.489Z,72.93
2022-12-01T17:53:32.560Z,72.47
2022-12-01T17:56:00.026Z,67.35
2022-12-01T17:58:26.859Z,64.05
2022-12-01T18:00:53.912Z,65.93
2022-12-01T18:03:21.059Z,66.32
2022-12-01T18:05:58.212Z,64.65
2022-12-01T18:08:26.599Z,62.30
2022-12-01T18:10:53.844Z,61.30
2022-12-01T18:13:21.517Z,65.10
2022-12-01T18:15:48.632Z,70.30
2022-12-01T18:18:15.115Z,67.45
2022-12-01T18:20:43.340Z,69.07
2022-12-01T18:23:11.467Z,68.43
2022-12-01T18:25:39.489Z,64.82
2022-12-01T18:28:06.898Z,72.63
2022-12-01T18:30:34.032Z,77.03
2022-12-01T18:33:01.429Z,74.72
2022-12-01T18:35:31.927Z,73.28
2022-12-01T18:37:58.881Z,74.22
2022-12-01T18:40:25.266Z,72.80
2022-12-01T18:42:51.660Z,67.38
2022-12-01T18:45:21.228Z,77.57
2022-12-01T18:47:48.209Z,75.60
2022-12-01T18:50:14.928Z,73.13
2022-12-01T18:52:41.343Z,72.38
2022-12-01T18:55:09.087Z,75.57
2022-12-01T18:57:35.614Z,75.82
2022-12-01T19:00:04.611Z,72.65
2022-12-01T19:02:31.095Z,72.50
2022-12-01T19:04:57.527Z,70.97
2022-12-01T19:07:29.371Z,66.22
2022-12-01T19:09:56.351Z,72.88
2022-12-01T19:12:22.817Z,68.15
2022-12-01T19:14:49.483Z,65.95
2022-12-01T19:17:16.687Z,69.97
2022-12-01T19:19:43.082Z,66.72
2022-12-01T19:22:09.492Z,58.80
2022-12-01T19:24:35.909Z,67.93
2022-12-01T19:27:02.302Z,55.63
2022-12-01T19:29:28.798Z,63.83
2022-12-01T19:31:55.425Z,67.13
2022-12-01T19:34:22.021Z,61.15
2022-12-01T19:36:49.792Z,66.65
2022-12-01T19:39:16.243Z,63.55
2022-12-01T19:41:42.642Z,61.08
2022-12-01T19:44:09.651Z,72.38
2022-12-01T19:46:36.060Z,65.40
2022-12-01T19:49:03.269Z,64.85
2022-12-01T19:51:35.441Z,62.47
2022-12-01T19:54:04.123Z,67.15
2022-12-01T19:56:31.474Z,57.42
2022-12-01T19:58:59.565Z,64.30
2022-12-01T20:01:27.041Z,59.13
2022-12-01T20:03:54.452Z,62.53
2022-12-01T20:06:27.805Z,59.97
2022-12-01T20:08:57.147Z,61.55
2022-12-01T20:11:25.313Z,59.65
2022-12-01T20:13:52.363Z,75.95
2022-12-01T20:16:21.868Z,83.97
2022-12-01T20:18:49.716Z,78.85
2022-12-01T20:21:19.396Z,76.95
2022-12-01T20:23:59.355Z,86.25
2022-12-01T20:26:31.617Z,83.55
2022-12-01T20:29:07.585Z,87.72
2022-12-01T20:31:34.886Z,82.63
2022-12-01T20:34:04.420Z,86.95
2022-12-01T20:36:30.932Z,90.07
2022-12-01T20:38:57.487Z,92.45
2022-12-01T20:41:23.970Z,87.05
2022-12-01T20:43:50.406Z,86.43
2022-12-01T20:46:17.155Z,84.30
2022-12-01T20:48:43.660Z,85.35
2022-12-01T20:51:13.060Z,84.55
2022-12-01T20:53:39.828Z,76.88
2022-12-01T20:56:09.649Z,81.40
2022-12-01T20:58:38.075Z,79.13
2022-12-01T21:01:13.402Z,81.35
2022-12-01T21:03:42.074Z,86.18
2022-12-01T21:06:09.907Z,74.32
2022-12-01T21:08:38.486Z,74.03
2022-12-01T21:11:07.944Z,72.18
2022-12-01T21:13:43.831Z,67.53
2022-12-01T21:16:14.042Z,62.88
2022-12-01T21:18:55.717Z,59.88
2022-12-01T21:21:25.299Z,52.00
2022-12-01T21:24:18.645Z,55.05
2022-12-01T21:26:50.489Z,63.05
2022-12-01T21:29:20.461Z,46.25
2022-12-01T21:31:50.609Z,57.42
2022-12-01T21:34:25.781Z,52.53
2022-12-01T21:36:56.509Z,49.85
2022-12-01T21:39:24.680Z,52.70
2022-12-01T21:41:54.811Z,51.72
2022-12-01T21:44:23.741Z,49.78
2022-12-01T21:46:53.643Z,44.50
2022-12-01T21:49:22.225Z,46.10
2022-12-01T21:51:52.014Z,47.00
2022-12-01T21:54:22.889Z,46.38
2022-12-01T21:56:52.125Z,48.13
2022-12-01T21:59:23.788Z,46.45
2022-12-01T22:01:57.344Z,43.13
2022-12-01T22:06:53.825Z,47.20
2022-12-01T22:09:35.855Z,47.20
2022-12-01T22:12:27.662Z,48.65
2022-12-01T22:15:00.263Z,56.03
2022-12-01T22:17:27.900Z,54.00
2022-12-01T22:20:00.787Z,46.58
2022-12-01T22:22:29.427Z,45.08
2022-12-01T22:25:22.091Z,44.63
2022-12-01T22:27:48.505Z,45.00
2022-12-01T22:30:21.116Z,44.03
2022-12-01T22:32:52.376Z,41.50
2022-12-01T22:35:22.119Z,43.17
2022-12-01T22:37:51.773Z,44.92
2022-12-01T22:40:43.212Z,46.05
2022-12-01T22:43:15.510Z,42.75
2022-12-01T22:45:47.403Z,46.55
2022-12-01T22:48:37.148Z,43.90
2022-12-01T22:51:12.641Z,46.30
2022-12-01T22:53:39.615Z,44.22
2022-12-01T22:56:24.634Z,44.35
2022-12-01T22:58:51.804Z,40.00
2022-12-01T23:01:40.855Z,37.03
2022-12-01T23:04:42.121Z,40.95
2022-12-01T23:07:27.614Z,41.22
2022-12-01T23:09:57.411Z,41.40
2022-12-01T23:12:29.985Z,36.15
2022-12-01T23:15:07.001Z,43.45
2022-12-01T23:17:35.608Z,41.78
2022-12-01T23:20:08.231Z,40.45
2022-12-01T23:22:34.653Z,46.28
2022-12-01T23:25:09.437Z,39.03
2022-12-01T23:27:37.507Z,38.40
2022-12-01T23:30:04.857Z,40.30
2022-12-01T23:32:31.537Z,48.25
2022-12-01T23:35:00.318Z,43.33
2022-12-01T23:37:34.382Z,43.08
2022-12-01T23:40:02.315Z,46.63
2022-12-01T23:42:28.758Z,46.35
2022-12-01T23:44:55.251Z,44.70
2022-12-01T23:47:27.686Z,43.80
2022-12-01T23:50:03.456Z,46.15
2022-12-01T23:52:35.996Z,47.65
2022-12-01T23:55:11.338Z,45.60
2022-12-01T23:57:37.755Z,47.63
